Airfield :
LOGIN :

Register | Disclaimer

   EN    FR    IT 

 










Legend :    VFR   Marginal VFR   IFR   Intensive IFR   Very Intensive IFR
Visi :
Ceiling :
>= 8 km
>= 3000ft
5 to 8 km
1000 to 3000 ft
1500m to 5 km
500 to 1000 ft
800 to 1500m
200 to 500 ft
< 800m
< 200 ft
Symbols :   Thunderstorms  Fog  Heavy snow  Heavy precipitations  Wind > 20 kt
SIGMETs :     Misc.  Thunderstorms  Icing  Turbulence  Mountain Waves  Volcanic Ashes






- Airport Elevation : 154 ft
- IATA code : SZZ


EPSC - Szczecin Goleniow

CURRENT METAR :
  • 312030Z 01006KT 330V030 CAVOK 11/07 Q1023

EXPIRED METARs :
  • 312000Z 36007KT 340V040 CAVOK 12/07 Q1023
  • 311930Z 36008KT 330V030 CAVOK 13/07 Q1023
  • 311900Z 01008KT 330V040 CAVOK 14/07 Q1022
  • 311830Z 01008KT 340V050 CAVOK 15/06 Q1022
  • 311800Z 02010KT 340V060 CAVOK 15/06 Q1022

TAF TAF EPSC
Valid from the 31 at 18:00 until the 01 at 18:00 UTC


311730Z 3118/0118 01012KT CAVOK
PROB40
TEMPO 0110/0115 03015G25KT



MET'MAP, your aeronautical weather chart ! - Copyright ORBIFLY December 2007 - Disclaimer

ORBIFLY MET'MAP TEAM :

Programming & Development : Alexandra Zaïnal
Concept & original design : Baudouin d'Aumeries
Assistance for programming : Marc-Olivier Méhu
Technical & hardware support : Manuel Goepfert

Contact : metmap@orbifly.com




SOURCES & CREDITS :

   NOAA